sensor_id;sensor_type;location;lat;lon;timestamp;temperature;humidity
8489;DHT22;4281;45.772;12.852;2022-09-09T00:01:28;22.30;99.90
8489;DHT22;4281;45.772;12.852;2022-09-09T00:04:05;22.00;99.90
8489;DHT22;4281;45.772;12.852;2022-09-09T00:06:44;21.90;99.90
8489;DHT22;4281;45.772;12.852;2022-09-09T00:09:16;22.00;99.90
8489;DHT22;4281;45.772;12.852;2022-09-09T00:11:47;21.80;99.90
8489;DHT22;4281;45.772;12.852;2022-09-09T00:14:22;21.70;99.90
8489;DHT22;4281;45.772;12.852;2022-09-09T00:16:55;21.80;99.90
8489;DHT22;4281;45.772;12.852;2022-09-09T00:19:28;21.80;99.90
8489;DHT22;4281;45.772;12.852;2022-09-09T00:22:08;21.70;99.90
8489;DHT22;4281;45.772;12.852;2022-09-09T00:24:44;21.80;99.90
8489;DHT22;4281;45.772;12.852;2022-09-09T00:27:19;21.70;99.90
8489;DHT22;4281;45.772;12.852;2022-09-09T00:29:53;21.70;99.90
8489;DHT22;4281;45.772;12.852;2022-09-09T00:32:25;21.60;99.90
8489;DHT22;4281;45.772;12.852;2022-09-09T00:34:58;21.90;99.90
8489;DHT22;4281;45.772;12.852;2022-09-09T00:37:31;21.60;99.90
8489;DHT22;4281;45.772;12.852;2022-09-09T00:40:07;21.80;99.90
8489;DHT22;4281;45.772;12.852;2022-09-09T00:42:44;21.80;99.90
8489;DHT22;4281;45.772;12.852;2022-09-09T00:45:25;21.90;99.90
8489;DHT22;4281;45.772;12.852;2022-09-09T00:48:03;21.90;99.90
8489;DHT22;4281;45.772;12.852;2022-09-09T00:50:45;21.90;99.90
8489;DHT22;4281;45.772;12.852;2022-09-09T00:53:32;21.90;99.90
8489;DHT22;4281;45.772;12.852;2022-09-09T00:56:12;21.90;99.90
8489;DHT22;4281;45.772;12.852;2022-09-09T00:58:43;21.90;99.90
8489;DHT22;4281;45.772;12.852;2022-09-09T01:01:17;21.90;99.90
8489;DHT22;4281;45.772;12.852;2022-09-09T01:03:49;21.90;99.90
8489;DHT22;4281;45.772;12.852;2022-09-09T01:06:24;21.80;99.90
8489;DHT22;4281;45.772;12.852;2022-09-09T01:09:11;21.70;99.90
8489;DHT22;4281;45.772;12.852;2022-09-09T01:11:51;21.80;99.90
8489;DHT22;4281;45.772;12.852;2022-09-09T01:14:35;21.90;99.90
8489;DHT22;4281;45.772;12.852;2022-09-09T01:17:11;21.80;99.90
8489;DHT22;4281;45.772;12.852;2022-09-09T01:19:54;21.90;99.90
8489;DHT22;4281;45.772;12.852;2022-09-09T01:22:32;21.90;99.90
8489;DHT22;4281;45.772;12.852;2022-09-09T01:25:21;21.90;99.90
8489;DHT22;4281;45.772;12.852;2022-09-09T01:27:56;21.90;99.90
8489;DHT22;4281;45.772;12.852;2022-09-09T01:30:26;21.90;99.90
8489;DHT22;4281;45.772;12.852;2022-09-09T01:32:57;21.80;99.90
8489;DHT22;4281;45.772;12.852;2022-09-09T01:35:35;21.90;99.90
8489;DHT22;4281;45.772;12.852;2022-09-09T01:38:05;21.70;99.90
8489;DHT22;4281;45.772;12.852;2022-09-09T01:40:34;21.80;99.90
8489;DHT22;4281;45.772;12.852;2022-09-09T01:43:04;21.90;99.90
8489;DHT22;4281;45.772;12.852;2022-09-09T01:45:33;21.70;99.90
8489;DHT22;4281;45.772;12.852;2022-09-09T01:48:02;21.60;99.90
8489;DHT22;4281;45.772;12.852;2022-09-09T01:50:31;21.50;99.90
8489;DHT22;4281;45.772;12.852;2022-09-09T01:53:01;21.40;99.90
8489;DHT22;4281;45.772;12.852;2022-09-09T01:55:33;21.50;99.90
8489;DHT22;4281;45.772;12.852;2022-09-09T01:58:16;21.60;99.90
8489;DHT22;4281;45.772;12.852;2022-09-09T02:00:53;21.60;99.90
8489;DHT22;4281;45.772;12.852;2022-09-09T02:03:25;21.60;99.90
8489;DHT22;4281;45.772;12.852;2022-09-09T02:05:59;21.40;99.90
8489;DHT22;4281;45.772;12.852;2022-09-09T02:08:39;21.30;99.90
8489;DHT22;4281;45.772;12.852;2022-09-09T02:11:13;21.30;99.90
8489;DHT22;4281;45.772;12.852;2022-09-09T02:13:45;21.40;99.90
8489;DHT22;4281;45.772;12.852;2022-09-09T02:16:18;21.40;99.90
8489;DHT22;4281;45.772;12.852;2022-09-09T02:18:53;21.40;99.90
8489;DHT22;4281;45.772;12.852;2022-09-09T02:21:24;21.40;99.90
8489;DHT22;4281;45.772;12.852;2022-09-09T02:23:57;21.50;99.90
8489;DHT22;4281;45.772;12.852;2022-09-09T02:26:27;21.40;99.90
8489;DHT22;4281;45.772;12.852;2022-09-09T02:28:58;21.30;99.90
8489;DHT22;4281;45.772;12.852;2022-09-09T02:31:30;21.10;99.90
8489;DHT22;4281;45.772;12.852;2022-09-09T02:34:03;21.10;99.90
8489;DHT22;4281;45.772;12.852;2022-09-09T02:36:34;21.10;99.90
8489;DHT22;4281;45.772;12.852;2022-09-09T02:39:05;21.10;99.90
8489;DHT22;4281;45.772;12.852;2022-09-09T02:41:37;21.10;99.90
8489;DHT22;4281;45.772;12.852;2022-09-09T02:44:11;21.10;99.90
8489;DHT22;4281;45.772;12.852;2022-09-09T02:47:13;21.20;99.90
8489;DHT22;4281;45.772;12.852;2022-09-09T02:49:53;20.80;99.90
8489;DHT22;4281;45.772;12.852;2022-09-09T02:52:29;21.00;99.90
8489;DHT22;4281;45.772;12.852;2022-09-09T02:55:06;21.10;99.90
8489;DHT22;4281;45.772;12.852;2022-09-09T02:57:37;20.90;99.90
8489;DHT22;4281;45.772;12.852;2022-09-09T03:00:09;20.90;99.90
8489;DHT22;4281;45.772;12.852;2022-09-09T03:02:38;20.90;99.90
8489;DHT22;4281;45.772;12.852;2022-09-09T03:05:07;20.90;99.90
8489;DHT22;4281;45.772;12.852;2022-09-09T03:07:35;21.00;99.90
8489;DHT22;4281;45.772;12.852;2022-09-09T03:10:05;21.00;99.90
8489;DHT22;4281;45.772;12.852;2022-09-09T03:12:33;21.10;99.90
8489;DHT22;4281;45.772;12.852;2022-09-09T03:15:02;21.10;99.90
8489;DHT22;4281;45.772;12.852;2022-09-09T03:17:32;21.10;99.90
8489;DHT22;4281;45.772;12.852;2022-09-09T03:20:02;21.10;99.90
8489;DHT22;4281;45.772;12.852;2022-09-09T03:22:30;21.10;99.90
8489;DHT22;4281;45.772;12.852;2022-09-09T03:24:58;20.90;99.90
8489;DHT22;4281;45.772;12.852;2022-09-09T03:27:27;20.90;99.90
8489;DHT22;4281;45.772;12.852;2022-09-09T03:29:55;20.90;99.90
8489;DHT22;4281;45.772;12.852;2022-09-09T03:32:24;21.00;99.90
8489;DHT22;4281;45.772;12.852;2022-09-09T03:34:55;21.00;99.90
8489;DHT22;4281;45.772;12.852;2022-09-09T03:37:23;21.00;99.90
8489;DHT22;4281;45.772;12.852;2022-09-09T03:39:51;20.90;99.90
8489;DHT22;4281;45.772;12.852;2022-09-09T03:42:21;20.90;99.90
8489;DHT22;4281;45.772;12.852;2022-09-09T03:44:50;20.80;99.90
8489;DHT22;4281;45.772;12.852;2022-09-09T03:47:19;20.80;99.90
8489;DHT22;4281;45.772;12.852;2022-09-09T03:49:48;20.70;99.90
8489;DHT22;4281;45.772;12.852;2022-09-09T03:52:18;20.80;99.90
8489;DHT22;4281;45.772;12.852;2022-09-09T03:54:49;20.90;99.90
8489;DHT22;4281;45.772;12.852;2022-09-09T03:57:18;21.00;99.90
8489;DHT22;4281;45.772;12.852;2022-09-09T03:59:46;20.90;99.90
8489;DHT22;4281;45.772;12.852;2022-09-09T04:02:14;20.90;99.90
8489;DHT22;4281;45.772;12.852;2022-09-09T04:04:43;21.00;99.90
8489;DHT22;4281;45.772;12.852;2022-09-09T04:07:11;21.20;99.90
8489;DHT22;4281;45.772;12.852;2022-09-09T04:09:41;21.00;99.90
8489;DHT22;4281;45.772;12.852;2022-09-09T04:12:09;21.00;99.90
8489;DHT22;4281;45.772;12.852;2022-09-09T04:14:40;20.80;99.90
8489;DHT22;4281;45.772;12.852;2022-09-09T04:17:08;20.80;99.90
8489;DHT22;4281;45.772;12.852;2022-09-09T04:19:36;21.00;99.90
8489;DHT22;4281;45.772;12.852;2022-09-09T04:22:05;20.90;99.90
8489;DHT22;4281;45.772;12.852;2022-09-09T04:24:33;20.90;99.90
8489;DHT22;4281;45.772;12.852;2022-09-09T04:27:03;20.80;99.90
8489;DHT22;4281;45.772;12.852;2022-09-09T04:29:32;20.70;99.90
8489;DHT22;4281;45.772;12.852;2022-09-09T04:32:01;20.70;99.90
8489;DHT22;4281;45.772;12.852;2022-09-09T04:34:29;20.60;99.90
8489;DHT22;4281;45.772;12.852;2022-09-09T04:36:58;20.70;99.90
8489;DHT22;4281;45.772;12.852;2022-09-09T04:39:27;20.60;99.90
8489;DHT22;4281;45.772;12.852;2022-09-09T04:41:56;20.70;99.90
8489;DHT22;4281;45.772;12.852;2022-09-09T04:44:26;20.60;99.90
8489;DHT22;4281;45.772;12.852;2022-09-09T04:46:56;20.70;99.90
8489;DHT22;4281;45.772;12.852;2022-09-09T04:49:25;20.70;99.90
8489;DHT22;4281;45.772;12.852;2022-09-09T04:51:53;20.80;99.90
8489;DHT22;4281;45.772;12.852;2022-09-09T04:54:22;20.80;99.90
8489;DHT22;4281;45.772;12.852;2022-09-09T04:56:50;20.90;99.90
8489;DHT22;4281;45.772;12.852;2022-09-09T04:59:19;20.90;99.90
8489;DHT22;4281;45.772;12.852;2022-09-09T05:01:48;21.00;99.90
8489;DHT22;4281;45.772;12.852;2022-09-09T05:04:17;21.00;99.90
8489;DHT22;4281;45.772;12.852;2022-09-09T05:06:46;20.90;99.90
8489;DHT22;4281;45.772;12.852;2022-09-09T05:09:16;21.00;99.90
8489;DHT22;4281;45.772;12.852;2022-09-09T05:11:45;21.00;99.90
8489;DHT22;4281;45.772;12.852;2022-09-09T05:14:13;21.10;99.90
8489;DHT22;4281;45.772;12.852;2022-09-09T05:16:41;21.00;99.90
8489;DHT22;4281;45.772;12.852;2022-09-09T05:19:12;21.10;99.90
8489;DHT22;4281;45.772;12.852;2022-09-09T05:21:41;21.10;99.90
8489;DHT22;4281;45.772;12.852;2022-09-09T05:26:40;21.40;99.90
8489;DHT22;4281;45.772;12.852;2022-09-09T05:29:09;21.50;99.90
8489;DHT22;4281;45.772;12.852;2022-09-09T05:31:37;21.50;99.90
8489;DHT22;4281;45.772;12.852;2022-09-09T05:34:06;21.20;99.90
8489;DHT22;4281;45.772;12.852;2022-09-09T05:36:36;21.20;99.90
8489;DHT22;4281;45.772;12.852;2022-09-09T05:39:04;21.10;99.90
8489;DHT22;4281;45.772;12.852;2022-09-09T05:41:32;21.10;99.90
8489;DHT22;4281;45.772;12.852;2022-09-09T05:44:02;21.20;99.90
8489;DHT22;4281;45.772;12.852;2022-09-09T05:46:31;21.50;99.90
8489;DHT22;4281;45.772;12.852;2022-09-09T05:48:59;21.50;99.90
8489;DHT22;4281;45.772;12.852;2022-09-09T05:51:29;21.50;99.90
8489;DHT22;4281;45.772;12.852;2022-09-09T05:53:59;21.50;99.90
8489;DHT22;4281;45.772;12.852;2022-09-09T05:56:28;21.50;99.90
8489;DHT22;4281;45.772;12.852;2022-09-09T05:58:57;21.70;99.90
8489;DHT22;4281;45.772;12.852;2022-09-09T06:01:28;21.80;99.90
8489;DHT22;4281;45.772;12.852;2022-09-09T06:03:57;21.70;99.90
8489;DHT22;4281;45.772;12.852;2022-09-09T06:06:29;21.80;99.90
8489;DHT22;4281;45.772;12.852;2022-09-09T06:08:59;21.80;99.90
8489;DHT22;4281;45.772;12.852;2022-09-09T06:11:29;21.80;99.90
8489;DHT22;4281;45.772;12.852;2022-09-09T06:13:59;21.80;99.90
8489;DHT22;4281;45.772;12.852;2022-09-09T06:16:29;21.70;99.90
8489;DHT22;4281;45.772;12.852;2022-09-09T06:19:00;21.70;99.90
8489;DHT22;4281;45.772;12.852;2022-09-09T06:21:31;21.70;99.90
8489;DHT22;4281;45.772;12.852;2022-09-09T06:26:48;21.60;99.90
8489;DHT22;4281;45.772;12.852;2022-09-09T06:29:16;21.70;99.90
8489;DHT22;4281;45.772;12.852;2022-09-09T06:31:45;21.70;99.90
8489;DHT22;4281;45.772;12.852;2022-09-09T06:34:14;21.90;99.90
8489;DHT22;4281;45.772;12.852;2022-09-09T06:36:43;21.90;99.90
8489;DHT22;4281;45.772;12.852;2022-09-09T06:39:12;21.90;99.90
8489;DHT22;4281;45.772;12.852;2022-09-09T06:41:42;22.10;99.90
8489;DHT22;4281;45.772;12.852;2022-09-09T06:44:12;22.10;99.90
8489;DHT22;4281;45.772;12.852;2022-09-09T06:46:40;22.00;99.90
8489;DHT22;4281;45.772;12.852;2022-09-09T06:49:09;22.20;99.90
8489;DHT22;4281;45.772;12.852;2022-09-09T06:51:38;22.10;99.90
8489;DHT22;4281;45.772;12.852;2022-09-09T06:54:10;22.00;99.90
8489;DHT22;4281;45.772;12.852;2022-09-09T06:56:40;22.10;99.90
8489;DHT22;4281;45.772;12.852;2022-09-09T06:59:12;22.10;99.90
8489;DHT22;4281;45.772;12.852;2022-09-09T07:01:42;22.10;99.90
8489;DHT22;4281;45.772;12.852;2022-09-09T07:04:10;22.20;99.90
8489;DHT22;4281;45.772;12.852;2022-09-09T07:06:41;22.30;99.90
8489;DHT22;4281;45.772;12.852;2022-09-09T07:09:11;22.30;99.90
8489;DHT22;4281;45.772;12.852;2022-09-09T07:11:41;22.30;99.90
8489;DHT22;4281;45.772;12.852;2022-09-09T07:14:12;22.20;99.90
8489;DHT22;4281;45.772;12.852;2022-09-09T07:16:41;22.20;99.90
8489;DHT22;4281;45.772;12.852;2022-09-09T07:19:09;22.30;99.90
8489;DHT22;4281;45.772;12.852;2022-09-09T07:21:38;22.30;99.90
8489;DHT22;4281;45.772;12.852;2022-09-09T07:26:50;22.40;99.90
8489;DHT22;4281;45.772;12.852;2022-09-09T07:29:21;22.30;99.90
8489;DHT22;4281;45.772;12.852;2022-09-09T07:31:49;22.30;99.90
8489;DHT22;4281;45.772;12.852;2022-09-09T07:34:18;22.40;99.90
8489;DHT22;4281;45.772;12.852;2022-09-09T07:36:46;22.20;99.90
8489;DHT22;4281;45.772;12.852;2022-09-09T07:39:15;22.20;99.90
8489;DHT22;4281;45.772;12.852;2022-09-09T07:41:46;22.20;99.90
8489;DHT22;4281;45.772;12.852;2022-09-09T07:44:15;22.20;99.90
8489;DHT22;4281;45.772;12.852;2022-09-09T07:46:45;22.30;99.90
8489;DHT22;4281;45.772;12.852;2022-09-09T07:49:15;22.40;99.90
8489;DHT22;4281;45.772;12.852;2022-09-09T07:51:52;22.40;99.90
8489;DHT22;4281;45.772;12.852;2022-09-09T07:54:21;22.50;99.90
8489;DHT22;4281;45.772;12.852;2022-09-09T07:56:51;22.80;99.90
8489;DHT22;4281;45.772;12.852;2022-09-09T07:59:21;22.90;99.90
8489;DHT22;4281;45.772;12.852;2022-09-09T08:01:52;22.80;99.90
8489;DHT22;4281;45.772;12.852;2022-09-09T08:04:23;22.80;99.90
8489;DHT22;4281;45.772;12.852;2022-09-09T08:06:53;22.60;99.90
8489;DHT22;4281;45.772;12.852;2022-09-09T08:09:22;22.60;99.90
8489;DHT22;4281;45.772;12.852;2022-09-09T08:11:52;22.70;99.90
8489;DHT22;4281;45.772;12.852;2022-09-09T08:14:20;22.70;99.90
8489;DHT22;4281;45.772;12.852;2022-09-09T08:16:50;22.60;99.90
8489;DHT22;4281;45.772;12.852;2022-09-09T08:19:22;22.70;99.90
8489;DHT22;4281;45.772;12.852;2022-09-09T08:21:51;22.80;99.90
8489;DHT22;4281;45.772;12.852;2022-09-09T08:27:02;23.10;99.90
8489;DHT22;4281;45.772;12.852;2022-09-09T08:29:30;23.00;99.90
8489;DHT22;4281;45.772;12.852;2022-09-09T08:32:00;22.90;99.90
8489;DHT22;4281;45.772;12.852;2022-09-09T08:34:30;22.80;99.90
8489;DHT22;4281;45.772;12.852;2022-09-09T08:36:59;22.90;99.90
8489;DHT22;4281;45.772;12.852;2022-09-09T08:39:27;23.00;99.90
8489;DHT22;4281;45.772;12.852;2022-09-09T08:42:21;23.20;99.90
8489;DHT22;4281;45.772;12.852;2022-09-09T08:45:00;23.50;99.90
8489;DHT22;4281;45.772;12.852;2022-09-09T08:47:37;23.30;99.90
8489;DHT22;4281;45.772;12.852;2022-09-09T08:50:22;23.40;99.90
8489;DHT22;4281;45.772;12.852;2022-09-09T08:52:57;23.40;99.90
8489;DHT22;4281;45.772;12.852;2022-09-09T08:55:37;23.30;99.90
8489;DHT22;4281;45.772;12.852;2022-09-09T08:58:12;23.40;99.90
8489;DHT22;4281;45.772;12.852;2022-09-09T09:00:50;23.30;99.90
8489;DHT22;4281;45.772;12.852;2022-09-09T09:03:27;23.30;99.90
8489;DHT22;4281;45.772;12.852;2022-09-09T09:06:04;23.40;99.90
8489;DHT22;4281;45.772;12.852;2022-09-09T09:08:41;23.70;99.90
8489;DHT22;4281;45.772;12.852;2022-09-09T09:11:12;23.80;99.90
8489;DHT22;4281;45.772;12.852;2022-09-09T09:13:45;23.80;99.90
8489;DHT22;4281;45.772;12.852;2022-09-09T09:16:21;23.80;99.90
8489;DHT22;4281;45.772;12.852;2022-09-09T09:18:52;23.90;99.90
8489;DHT22;4281;45.772;12.852;2022-09-09T09:21:33;24.00;99.90
8489;DHT22;4281;45.772;12.852;2022-09-09T09:24:06;24.20;99.90
8489;DHT22;4281;45.772;12.852;2022-09-09T09:26:36;24.20;99.90
8489;DHT22;4281;45.772;12.852;2022-09-09T09:29:10;24.40;99.90
8489;DHT22;4281;45.772;12.852;2022-09-09T09:31:43;24.40;99.90
8489;DHT22;4281;45.772;12.852;2022-09-09T09:34:12;24.40;99.90
8489;DHT22;4281;45.772;12.852;2022-09-09T09:36:44;24.50;99.90
8489;DHT22;4281;45.772;12.852;2022-09-09T09:39:23;24.30;99.90
8489;DHT22;4281;45.772;12.852;2022-09-09T09:42:13;24.30;99.90
8489;DHT22;4281;45.772;12.852;2022-09-09T09:44:47;24.20;99.90
8489;DHT22;4281;45.772;12.852;2022-09-09T09:47:17;24.20;99.90
8489;DHT22;4281;45.772;12.852;2022-09-09T09:49:52;24.40;99.90
8489;DHT22;4281;45.772;12.852;2022-09-09T09:52:24;24.60;99.90
8489;DHT22;4281;45.772;12.852;2022-09-09T09:54:53;24.50;99.90
8489;DHT22;4281;45.772;12.852;2022-09-09T09:57:25;24.50;99.90
8489;DHT22;4281;45.772;12.852;2022-09-09T10:00:04;24.50;99.90
8489;DHT22;4281;45.772;12.852;2022-09-09T10:02:42;24.50;99.90
8489;DHT22;4281;45.772;12.852;2022-09-09T10:05:14;24.70;99.90
8489;DHT22;4281;45.772;12.852;2022-09-09T10:07:44;24.80;99.90
8489;DHT22;4281;45.772;12.852;2022-09-09T10:10:16;24.90;99.90
8489;DHT22;4281;45.772;12.852;2022-09-09T10:12:57;25.00;99.90
8489;DHT22;4281;45.772;12.852;2022-09-09T10:15:35;24.90;99.90
8489;DHT22;4281;45.772;12.852;2022-09-09T10:18:20;24.80;99.90
8489;DHT22;4281;45.772;12.852;2022-09-09T10:20:55;24.80;99.90
8489;DHT22;4281;45.772;12.852;2022-09-09T10:23:43;24.90;99.90
8489;DHT22;4281;45.772;12.852;2022-09-09T10:26:27;25.00;99.90
8489;DHT22;4281;45.772;12.852;2022-09-09T10:29:08;25.20;99.90
8489;DHT22;4281;45.772;12.852;2022-09-09T10:31:49;25.20;99.90
8489;DHT22;4281;45.772;12.852;2022-09-09T10:34:34;25.30;99.90
8489;DHT22;4281;45.772;12.852;2022-09-09T10:37:15;25.20;99.90
8489;DHT22;4281;45.772;12.852;2022-09-09T10:39:56;25.20;99.90
8489;DHT22;4281;45.772;12.852;2022-09-09T10:42:30;25.00;99.90
8489;DHT22;4281;45.772;12.852;2022-09-09T10:45:07;24.80;99.90
8489;DHT22;4281;45.772;12.852;2022-09-09T10:47:57;24.90;99.90
8489;DHT22;4281;45.772;12.852;2022-09-09T10:50:42;24.70;99.90
8489;DHT22;4281;45.772;12.852;2022-09-09T10:53:45;24.50;99.90
8489;DHT22;4281;45.772;12.852;2022-09-09T10:56:20;24.50;99.90
8489;DHT22;4281;45.772;12.852;2022-09-09T10:58:53;24.50;99.90
8489;DHT22;4281;45.772;12.852;2022-09-09T11:01:27;24.60;99.90
8489;DHT22;4281;45.772;12.852;2022-09-09T11:04:02;24.80;99.90
8489;DHT22;4281;45.772;12.852;2022-09-09T11:06:39;25.00;99.90
8489;DHT22;4281;45.772;12.852;2022-09-09T11:09:16;25.10;99.90
8489;DHT22;4281;45.772;12.852;2022-09-09T11:11:51;25.20;99.90
8489;DHT22;4281;45.772;12.852;2022-09-09T11:14:28;25.20;99.90
8489;DHT22;4281;45.772;12.852;2022-09-09T11:17:08;25.20;99.90
8489;DHT22;4281;45.772;12.852;2022-09-09T11:19:39;25.20;99.90
8489;DHT22;4281;45.772;12.852;2022-09-09T11:22:15;25.30;99.90
8489;DHT22;4281;45.772;12.852;2022-09-09T11:27:33;25.10;99.90
8489;DHT22;4281;45.772;12.852;2022-09-09T11:30:19;25.30;99.90
8489;DHT22;4281;45.772;12.852;2022-09-09T11:33:44;25.40;99.90
8489;DHT22;4281;45.772;12.852;2022-09-09T11:36:38;25.40;99.90
8489;DHT22;4281;45.772;12.852;2022-09-09T11:39:37;25.20;99.90
8489;DHT22;4281;45.772;12.852;2022-09-09T11:42:07;25.20;99.90
8489;DHT22;4281;45.772;12.852;2022-09-09T11:44:42;25.40;99.90
8489;DHT22;4281;45.772;12.852;2022-09-09T11:47:21;25.70;99.90
8489;DHT22;4281;45.772;12.852;2022-09-09T11:49:51;25.90;99.90
8489;DHT22;4281;45.772;12.852;2022-09-09T11:52:34;26.10;99.90
8489;DHT22;4281;45.772;12.852;2022-09-09T11:55:09;25.90;99.90
8489;DHT22;4281;45.772;12.852;2022-09-09T11:57:39;25.90;99.90
8489;DHT22;4281;45.772;12.852;2022-09-09T12:00:34;25.70;99.90
8489;DHT22;4281;45.772;12.852;2022-09-09T12:03:04;25.60;99.90
8489;DHT22;4281;45.772;12.852;2022-09-09T12:05:37;25.40;99.90
8489;DHT22;4281;45.772;12.852;2022-09-09T12:08:09;25.50;99.90
8489;DHT22;4281;45.772;12.852;2022-09-09T12:10:40;25.60;99.90
8489;DHT22;4281;45.772;12.852;2022-09-09T12:13:15;25.60;99.90
8489;DHT22;4281;45.772;12.852;2022-09-09T12:15:50;25.50;99.90
8489;DHT22;4281;45.772;12.852;2022-09-09T12:18:23;25.50;99.90
8489;DHT22;4281;45.772;12.852;2022-09-09T12:20:57;25.50;99.90
8489;DHT22;4281;45.772;12.852;2022-09-09T12:23:38;25.40;99.90
8489;DHT22;4281;45.772;12.852;2022-09-09T12:26:28;25.70;99.90
8489;DHT22;4281;45.772;12.852;2022-09-09T12:29:15;25.80;99.90
8489;DHT22;4281;45.772;12.852;2022-09-09T12:31:50;26.10;99.90
8489;DHT22;4281;45.772;12.852;2022-09-09T12:34:32;26.10;99.90
8489;DHT22;4281;45.772;12.852;2022-09-09T12:37:06;26.20;99.90
8489;DHT22;4281;45.772;12.852;2022-09-09T12:39:41;26.20;99.90
8489;DHT22;4281;45.772;12.852;2022-09-09T12:42:41;25.80;99.90
8489;DHT22;4281;45.772;12.852;2022-09-09T12:45:16;25.70;99.90
8489;DHT22;4281;45.772;12.852;2022-09-09T12:47:49;25.70;99.90
8489;DHT22;4281;45.772;12.852;2022-09-09T12:50:21;25.60;99.90
8489;DHT22;4281;45.772;12.852;2022-09-09T12:52:50;25.40;99.90
8489;DHT22;4281;45.772;12.852;2022-09-09T12:55:21;25.40;99.90
8489;DHT22;4281;45.772;12.852;2022-09-09T12:57:52;25.30;99.90
8489;DHT22;4281;45.772;12.852;2022-09-09T13:00:23;25.20;99.90
8489;DHT22;4281;45.772;12.852;2022-09-09T13:02:54;24.90;99.90
8489;DHT22;4281;45.772;12.852;2022-09-09T13:05:24;24.80;99.90
8489;DHT22;4281;45.772;12.852;2022-09-09T13:08:01;24.80;99.90
8489;DHT22;4281;45.772;12.852;2022-09-09T13:10:32;24.70;99.90
8489;DHT22;4281;45.772;12.852;2022-09-09T13:13:21;24.60;99.90
8489;DHT22;4281;45.772;12.852;2022-09-09T13:15:52;24.70;99.90
8489;DHT22;4281;45.772;12.852;2022-09-09T13:18:24;24.80;99.90
8489;DHT22;4281;45.772;12.852;2022-09-09T13:20:54;24.60;99.90
8489;DHT22;4281;45.772;12.852;2022-09-09T13:23:27;24.50;99.90
8489;DHT22;4281;45.772;12.852;2022-09-09T13:25:57;24.40;99.90
8489;DHT22;4281;45.772;12.852;2022-09-09T13:28:27;24.50;99.90
8489;DHT22;4281;45.772;12.852;2022-09-09T13:31:01;24.70;99.90
8489;DHT22;4281;45.772;12.852;2022-09-09T13:33:33;24.70;99.90
8489;DHT22;4281;45.772;12.852;2022-09-09T13:36:06;24.50;99.90
8489;DHT22;4281;45.772;12.852;2022-09-09T13:38:38;24.50;99.90
8489;DHT22;4281;45.772;12.852;2022-09-09T13:41:10;24.50;99.90
8489;DHT22;4281;45.772;12.852;2022-09-09T13:43:44;24.40;99.90
8489;DHT22;4281;45.772;12.852;2022-09-09T13:46:27;24.30;99.90
8489;DHT22;4281;45.772;12.852;2022-09-09T13:49:00;24.20;99.90
8489;DHT22;4281;45.772;12.852;2022-09-09T13:51:33;24.00;99.90
8489;DHT22;4281;45.772;12.852;2022-09-09T13:54:04;24.00;99.90
8489;DHT22;4281;45.772;12.852;2022-09-09T13:56:37;23.90;99.90
8489;DHT22;4281;45.772;12.852;2022-09-09T13:59:11;23.90;99.90
8489;DHT22;4281;45.772;12.852;2022-09-09T14:01:40;23.80;99.90
8489;DHT22;4281;45.772;12.852;2022-09-09T14:04:10;23.70;99.90
8489;DHT22;4281;45.772;12.852;2022-09-09T14:06:39;23.50;99.90
8489;DHT22;4281;45.772;12.852;2022-09-09T14:09:11;23.70;99.90
8489;DHT22;4281;45.772;12.852;2022-09-09T14:11:42;23.80;99.90
8489;DHT22;4281;45.772;12.852;2022-09-09T14:14:12;23.90;99.90
8489;DHT22;4281;45.772;12.852;2022-09-09T14:16:40;24.00;99.90
8489;DHT22;4281;45.772;12.852;2022-09-09T14:19:10;24.20;99.90
8489;DHT22;4281;45.772;12.852;2022-09-09T14:21:38;24.00;99.90
8489;DHT22;4281;45.772;12.852;2022-09-09T14:24:07;24.20;99.90
8489;DHT22;4281;45.772;12.852;2022-09-09T14:26:35;24.20;99.90
8489;DHT22;4281;45.772;12.852;2022-09-09T14:29:03;24.30;99.90
8489;DHT22;4281;45.772;12.852;2022-09-09T14:31:32;24.20;99.90
8489;DHT22;4281;45.772;12.852;2022-09-09T14:34:00;24.00;99.90
8489;DHT22;4281;45.772;12.852;2022-09-09T14:36:30;24.10;99.90
8489;DHT22;4281;45.772;12.852;2022-09-09T14:38:58;24.20;99.90
8489;DHT22;4281;45.772;12.852;2022-09-09T14:41:26;23.90;99.90
8489;DHT22;4281;45.772;12.852;2022-09-09T14:43:56;24.10;99.90
8489;DHT22;4281;45.772;12.852;2022-09-09T14:46:24;24.20;99.90
8489;DHT22;4281;45.772;12.852;2022-09-09T14:48:53;24.30;99.90
8489;DHT22;4281;45.772;12.852;2022-09-09T14:51:23;24.40;99.90
8489;DHT22;4281;45.772;12.852;2022-09-09T14:53:54;24.50;99.90
8489;DHT22;4281;45.772;12.852;2022-09-09T14:56:25;24.40;99.90
8489;DHT22;4281;45.772;12.852;2022-09-09T14:58:54;24.10;99.90
8489;DHT22;4281;45.772;12.852;2022-09-09T15:01:23;23.90;99.90
8489;DHT22;4281;45.772;12.852;2022-09-09T15:03:55;23.80;99.90
8489;DHT22;4281;45.772;12.852;2022-09-09T15:06:26;23.80;99.90
8489;DHT22;4281;45.772;12.852;2022-09-09T15:08:57;23.80;99.90
8489;DHT22;4281;45.772;12.852;2022-09-09T15:11:27;23.60;99.90
8489;DHT22;4281;45.772;12.852;2022-09-09T15:13:57;23.70;99.90
8489;DHT22;4281;45.772;12.852;2022-09-09T15:16:27;23.70;99.90
8489;DHT22;4281;45.772;12.852;2022-09-09T15:18:57;23.70;99.90
8489;DHT22;4281;45.772;12.852;2022-09-09T15:21:27;23.60;99.90
8489;DHT22;4281;45.772;12.852;2022-09-09T15:23:58;23.70;99.90
8489;DHT22;4281;45.772;12.852;2022-09-09T15:26:27;23.70;99.90
8489;DHT22;4281;45.772;12.852;2022-09-09T15:28:57;23.70;99.90
8489;DHT22;4281;45.772;12.852;2022-09-09T15:31:27;23.70;99.90
8489;DHT22;4281;45.772;12.852;2022-09-09T15:33:58;23.70;99.90
8489;DHT22;4281;45.772;12.852;2022-09-09T15:36:30;23.80;99.90
8489;DHT22;4281;45.772;12.852;2022-09-09T15:39:00;23.80;99.90
8489;DHT22;4281;45.772;12.852;2022-09-09T15:41:30;23.80;99.90
8489;DHT22;4281;45.772;12.852;2022-09-09T15:44:00;24.00;99.90
8489;DHT22;4281;45.772;12.852;2022-09-09T15:46:30;24.00;99.90
8489;DHT22;4281;45.772;12.852;2022-09-09T15:49:03;24.00;99.90
8489;DHT22;4281;45.772;12.852;2022-09-09T15:51:32;23.70;99.90
8489;DHT22;4281;45.772;12.852;2022-09-09T15:54:11;23.80;99.90
8489;DHT22;4281;45.772;12.852;2022-09-09T15:56:40;23.80;99.90
8489;DHT22;4281;45.772;12.852;2022-09-09T15:59:09;23.70;99.90
8489;DHT22;4281;45.772;12.852;2022-09-09T16:01:38;23.20;99.90
8489;DHT22;4281;45.772;12.852;2022-09-09T16:04:10;23.20;99.90
8489;DHT22;4281;45.772;12.852;2022-09-09T16:06:38;23.30;99.90
8489;DHT22;4281;45.772;12.852;2022-09-09T16:09:08;23.30;99.90
8489;DHT22;4281;45.772;12.852;2022-09-09T16:11:40;23.10;99.90
8489;DHT22;4281;45.772;12.852;2022-09-09T16:14:08;23.20;99.90
8489;DHT22;4281;45.772;12.852;2022-09-09T16:16:37;23.20;99.90
8489;DHT22;4281;45.772;12.852;2022-09-09T16:19:08;23.10;99.90
8489;DHT22;4281;45.772;12.852;2022-09-09T16:21:38;23.20;99.90
8489;DHT22;4281;45.772;12.852;2022-09-09T16:24:09;23.00;99.90
8489;DHT22;4281;45.772;12.852;2022-09-09T16:26:42;23.10;99.90
8489;DHT22;4281;45.772;12.852;2022-09-09T16:29:12;23.30;99.90
8489;DHT22;4281;45.772;12.852;2022-09-09T16:31:41;23.30;99.90
8489;DHT22;4281;45.772;12.852;2022-09-09T16:34:10;23.30;99.90